createdAt,value
2017-08-13T00:02:11.861Z,5.40
2017-08-13T00:07:05.000Z,5.90
2017-08-13T00:09:32.482Z,5.13
2017-08-13T00:11:59.975Z,6.33
2017-08-13T00:14:27.456Z,5.57
2017-08-13T00:16:54.967Z,5.50
2017-08-13T00:19:22.439Z,5.20
2017-08-13T00:21:49.954Z,5.00
2017-08-13T00:24:17.436Z,5.53
2017-08-13T00:26:44.911Z,5.80
2017-08-13T00:29:12.415Z,5.67
2017-08-13T00:31:39.904Z,5.80
2017-08-13T00:34:07.398Z,5.57
2017-08-13T00:36:35.645Z,4.90
2017-08-13T00:39:03.140Z,6.33
2017-08-13T00:41:30.626Z,5.40
2017-08-13T00:43:58.136Z,5.40
2017-08-13T00:46:25.608Z,5.87
2017-08-13T00:48:53.116Z,6.07
2017-08-13T00:51:20.601Z,6.20
2017-08-13T00:53:48.106Z,6.20
2017-08-13T00:56:15.582Z,6.27
2017-08-13T00:58:43.843Z,5.57
2017-08-13T01:01:12.083Z,5.50
2017-08-13T01:03:39.584Z,6.17
2017-08-13T01:06:07.068Z,5.97
2017-08-13T01:08:34.574Z,5.87
2017-08-13T01:11:02.061Z,6.10
2017-08-13T01:13:29.565Z,5.47
2017-08-13T01:15:57.045Z,6.77
2017-08-13T01:18:24.539Z,6.00
2017-08-13T01:20:52.020Z,5.70
2017-08-13T01:23:19.516Z,6.10
2017-08-13T01:25:46.995Z,5.97
2017-08-13T01:28:14.484Z,6.00
2017-08-13T01:30:42.001Z,6.37
2017-08-13T01:33:09.484Z,6.13
2017-08-13T01:35:36.979Z,6.23
2017-08-13T01:38:04.460Z,6.10
2017-08-13T01:40:31.955Z,6.50
2017-08-13T01:42:59.436Z,6.17
2017-08-13T01:45:26.928Z,5.43
2017-08-13T01:47:54.411Z,6.40
2017-08-13T01:50:21.912Z,6.33
2017-08-13T01:52:49.392Z,6.10
2017-08-13T01:55:16.892Z,5.77
2017-08-13T01:57:47.354Z,6.43
2017-08-13T02:00:14.852Z,5.87
2017-08-13T02:02:42.335Z,5.70
2017-08-13T02:05:09.837Z,6.40
2017-08-13T02:07:37.319Z,6.20
2017-08-13T02:10:05.619Z,6.60
2017-08-13T02:12:33.867Z,6.50
2017-08-13T02:15:02.135Z,6.83
2017-08-13T02:17:30.384Z,6.63
2017-08-13T02:19:58.652Z,5.77
2017-08-13T02:22:26.132Z,7.97
2017-08-13T02:24:53.632Z,5.23
2017-08-13T02:27:21.114Z,6.33
2017-08-13T02:29:48.623Z,5.57
2017-08-13T02:32:16.872Z,6.00
2017-08-13T02:34:44.356Z,5.70
2017-08-13T02:37:11.857Z,5.70
2017-08-13T02:39:39.336Z,6.13
2017-08-13T02:42:06.839Z,5.40
2017-08-13T02:44:34.320Z,5.40
2017-08-13T02:47:01.819Z,5.97
2017-08-13T02:49:29.295Z,5.63
2017-08-13T02:51:56.796Z,6.03
2017-08-13T02:54:24.275Z,6.20
2017-08-13T02:56:51.779Z,6.60
2017-08-13T02:59:19.262Z,5.97
2017-08-13T03:01:46.767Z,5.60
2017-08-13T03:04:14.248Z,6.07
2017-08-13T03:06:41.747Z,6.40
2017-08-13T03:09:09.229Z,6.30
2017-08-13T03:11:36.740Z,6.13
2017-08-13T03:14:04.219Z,6.30
2017-08-13T03:16:31.708Z,5.90
2017-08-13T03:18:59.199Z,6.30
2017-08-13T03:21:26.696Z,7.40
2017-08-13T03:23:54.175Z,7.27
2017-08-13T03:26:21.686Z,7.10
2017-08-13T03:28:49.171Z,7.57
2017-08-13T03:31:16.653Z,6.50
2017-08-13T03:33:44.157Z,8.50
2017-08-13T03:36:11.643Z,7.57
2017-08-13T03:38:39.140Z,7.07
2017-08-13T03:41:06.626Z,6.77
2017-08-13T03:43:34.119Z,7.33
2017-08-13T03:46:01.596Z,6.97
2017-08-13T03:48:29.100Z,6.87
2017-08-13T03:50:56.575Z,7.87
2017-08-13T03:53:24.071Z,7.37
2017-08-13T03:55:51.564Z,7.70
2017-08-13T03:58:19.064Z,7.20
2017-08-13T04:00:47.311Z,7.60
2017-08-13T04:03:14.807Z,8.50
2017-08-13T04:05:42.288Z,7.60
2017-08-13T04:08:09.785Z,8.37
2017-08-13T04:10:37.263Z,7.70
2017-08-13T04:13:04.772Z,8.27
2017-08-13T04:15:32.255Z,6.93
2017-08-13T04:17:59.755Z,7.40
2017-08-13T04:20:27.233Z,8.43
2017-08-13T04:22:54.735Z,7.30
2017-08-13T04:25:22.216Z,7.17
2017-08-13T04:27:50.280Z,6.97
2017-08-13T04:30:17.765Z,8.20
2017-08-13T04:32:45.244Z,6.77
2017-08-13T04:35:12.744Z,6.90
2017-08-13T04:37:40.234Z,7.70
2017-08-13T04:40:07.724Z,6.90
2017-08-13T04:42:35.200Z,7.00
2017-08-13T04:45:02.699Z,6.80
2017-08-13T04:47:30.943Z,6.60
2017-08-13T04:49:58.452Z,7.30
2017-08-13T04:52:25.923Z,7.57
2017-08-13T04:54:53.418Z,7.20
2017-08-13T04:57:20.888Z,7.60
2017-08-13T04:59:48.384Z,7.90
2017-08-13T05:02:15.868Z,7.17
2017-08-13T05:04:43.364Z,7.30
2017-08-13T05:07:10.848Z,7.33
2017-08-13T05:09:38.365Z,7.60
2017-08-13T05:12:05.831Z,7.50
2017-08-13T05:14:33.323Z,7.27
2017-08-13T05:17:00.796Z,7.77
2017-08-13T05:19:28.287Z,7.37
2017-08-13T05:21:55.765Z,8.07
2017-08-13T05:24:23.263Z,7.90
2017-08-13T05:26:50.748Z,8.33
2017-08-13T05:29:18.248Z,7.40
2017-08-13T05:31:45.727Z,6.97
2017-08-13T05:34:13.240Z,7.80
2017-08-13T05:36:40.711Z,7.13
2017-08-13T05:39:08.183Z,7.90
2017-08-13T05:41:35.679Z,7.07
2017-08-13T05:44:03.927Z,7.40
2017-08-13T05:46:31.424Z,7.60
2017-08-13T05:48:58.912Z,13.43
2017-08-13T05:51:26.409Z,8.50
2017-08-13T05:53:53.887Z,8.87
2017-08-13T05:56:21.392Z,8.50
2017-08-13T05:58:48.867Z,7.50
2017-08-13T06:01:16.377Z,7.27
2017-08-13T06:03:43.855Z,7.47
2017-08-13T06:06:11.355Z,8.03
2017-08-13T06:08:38.845Z,7.70
2017-08-13T06:11:06.348Z,7.03
2017-08-13T06:13:33.829Z,6.80
2017-08-13T06:16:01.332Z,7.40
2017-08-13T06:18:28.823Z,7.10
2017-08-13T06:20:56.311Z,7.50
2017-08-13T06:23:23.792Z,7.93
2017-08-13T06:25:51.283Z,7.10
2017-08-13T06:28:18.761Z,6.80
2017-08-13T06:30:46.244Z,7.87
2017-08-13T06:33:13.761Z,12.80
2017-08-13T06:35:41.239Z,12.57
2017-08-13T06:38:08.751Z,11.10
2017-08-13T06:40:36.227Z,8.67
2017-08-13T06:43:03.723Z,8.57
2017-08-13T06:45:31.203Z,8.47
2017-08-13T06:47:58.707Z,7.80
2017-08-13T06:50:26.184Z,6.50
2017-08-13T06:52:54.452Z,7.03
2017-08-13T06:55:21.928Z,6.00
2017-08-13T06:57:49.423Z,7.17
2017-08-13T07:00:16.900Z,7.23
2017-08-13T07:02:44.400Z,6.67
2017-08-13T07:05:11.876Z,7.20
2017-08-13T07:07:39.381Z,7.23
2017-08-13T07:10:06.864Z,7.47
2017-08-13T07:12:34.364Z,6.60
2017-08-13T07:15:01.849Z,6.80
2017-08-13T07:17:29.365Z,7.20
2017-08-13T07:19:57.619Z,6.93
2017-08-13T07:22:25.125Z,6.20
2017-08-13T07:24:52.613Z,6.73
2017-08-13T07:27:20.127Z,6.40
2017-08-13T07:29:47.603Z,7.70
2017-08-13T07:32:15.185Z,6.90
2017-08-13T07:34:42.688Z,6.93
2017-08-13T07:37:10.168Z,6.00
2017-08-13T07:39:37.672Z,6.60
2017-08-13T07:42:05.165Z,6.20
2017-08-13T07:44:32.671Z,5.50
2017-08-13T07:47:00.161Z,6.30
2017-08-13T07:49:27.728Z,6.60
2017-08-13T07:51:55.216Z,6.20
2017-08-13T07:54:22.728Z,9.37
2017-08-13T08:00:57.620Z,5.40
2017-08-13T08:06:27.690Z,6.20
2017-08-13T08:08:55.198Z,5.07
2017-08-13T08:11:22.695Z,5.40
2017-08-13T08:13:50.216Z,6.00
2017-08-13T08:21:58.957Z,4.90
2017-08-13T08:24:27.245Z,5.10
2017-08-13T08:35:26.651Z,4.30
2017-08-13T08:37:54.500Z,5.47
2017-08-13T08:40:22.007Z,5.17
2017-08-13T08:42:49.494Z,4.80
2017-08-13T08:45:17.002Z,3.80
2017-08-13T08:47:44.520Z,4.40
2017-08-13T08:50:12.023Z,4.40
2017-08-13T08:52:39.500Z,4.13
2017-08-13T08:55:07.005Z,3.50
2017-08-13T08:57:34.488Z,4.20
2017-08-13T09:00:02.007Z,4.30
2017-08-13T09:02:29.489Z,3.30
2017-08-13T09:04:57.021Z,3.40
2017-08-13T09:07:24.521Z,3.73
2017-08-13T09:09:52.052Z,3.50
2017-08-13T09:12:19.570Z,3.00
2017-08-13T09:14:47.827Z,3.20
2017-08-13T09:17:15.335Z,3.13
2017-08-13T09:19:42.819Z,3.40
2017-08-13T09:22:10.323Z,3.43
2017-08-13T09:24:37.797Z,3.30
2017-08-13T09:27:05.336Z,3.10
2017-08-13T09:29:33.589Z,3.17
2017-08-13T09:32:01.873Z,3.70
2017-08-13T09:34:29.363Z,4.10
2017-08-13T09:36:56.868Z,3.60
2017-08-13T09:39:24.356Z,3.13
2017-08-13T09:41:51.873Z,2.87
2017-08-13T09:44:19.362Z,3.43
2017-08-13T09:46:46.884Z,3.13
2017-08-13T09:49:14.396Z,2.93
2017-08-13T09:51:41.906Z,3.70
2017-08-13T09:54:10.179Z,3.30
2017-08-13T09:56:37.669Z,3.03
2017-08-13T09:59:05.171Z,2.63
2017-08-13T10:01:32.668Z,2.97
2017-08-13T10:04:00.176Z,2.93
2017-08-13T10:06:27.672Z,3.00
2017-08-13T10:08:55.932Z,2.80
2017-08-13T10:11:24.235Z,3.03
2017-08-13T10:13:51.722Z,2.67
2017-08-13T10:16:19.996Z,2.57
2017-08-13T10:18:47.500Z,8.23
2017-08-13T10:21:15.006Z,2.40
2017-08-13T10:23:42.516Z,2.70
2017-08-13T10:26:09.994Z,2.17
2017-08-13T10:28:37.499Z,2.40
2017-08-13T10:31:04.976Z,1.53
2017-08-13T10:33:32.480Z,2.70
2017-08-13T10:35:59.968Z,1.93
2017-08-13T10:38:27.479Z,2.50
2017-08-13T10:40:55.724Z,2.43
2017-08-13T10:43:23.232Z,2.10
2017-08-13T10:45:50.737Z,2.17
2017-08-13T10:48:18.231Z,1.43
2017-08-13T10:50:45.721Z,2.60
2017-08-13T10:53:13.223Z,2.00
2017-08-13T10:55:40.704Z,2.00
2017-08-13T10:58:08.975Z,2.10
2017-08-13T11:00:36.453Z,1.63
2017-08-13T11:03:04.003Z,1.60
2017-08-13T11:05:31.484Z,1.93
2017-08-13T11:07:59.764Z,1.63
2017-08-13T11:10:27.259Z,1.60
2017-08-13T11:12:54.757Z,1.90
2017-08-13T11:15:22.255Z,1.60
2017-08-13T11:17:50.336Z,1.77
2017-08-13T11:20:17.831Z,1.70
2017-08-13T11:22:45.312Z,1.80
2017-08-13T11:25:13.572Z,1.47
2017-08-13T11:27:41.816Z,1.60
2017-08-13T11:30:09.313Z,1.57
2017-08-13T11:32:36.788Z,1.60
2017-08-13T11:35:04.305Z,2.20
2017-08-13T11:37:31.779Z,2.13
2017-08-13T11:39:59.291Z,2.00
2017-08-13T11:42:26.767Z,1.40
2017-08-13T11:44:54.280Z,2.13
2017-08-13T11:47:21.760Z,1.30
2017-08-13T11:49:49.264Z,1.60
2017-08-13T11:52:16.747Z,1.47
2017-08-13T11:54:44.271Z,1.33
2017-08-13T11:57:11.748Z,1.80
2017-08-13T11:59:40.003Z,2.10
2017-08-13T12:02:08.273Z,1.63
2017-08-13T12:04:35.775Z,1.20
2017-08-13T12:07:03.281Z,1.30
2017-08-13T12:09:30.787Z,1.10
2017-08-13T12:11:59.033Z,1.67
2017-08-13T12:14:26.531Z,1.30
2017-08-13T12:16:54.029Z,1.27
2017-08-13T12:19:22.319Z,1.37
2017-08-13T12:21:49.819Z,1.60
2017-08-13T12:24:17.309Z,1.27
2017-08-13T12:26:44.812Z,1.40
2017-08-13T12:29:12.296Z,1.50
2017-08-13T12:31:39.803Z,1.10
2017-08-13T12:34:08.050Z,1.47
2017-08-13T12:36:35.560Z,1.20
2017-08-13T12:39:03.035Z,1.30
2017-08-13T12:41:30.532Z,2.97
2017-08-13T12:43:58.014Z,2.83
2017-08-13T12:46:25.507Z,2.20
2017-08-13T12:48:52.990Z,1.50
2017-08-13T12:51:20.488Z,1.90
2017-08-13T12:53:47.963Z,1.30
2017-08-13T12:56:15.462Z,1.53
2017-08-13T12:58:42.943Z,1.67
2017-08-13T13:01:10.444Z,1.40
2017-08-13T13:03:37.924Z,1.50
2017-08-13T13:06:05.443Z,1.70
2017-08-13T13:08:32.919Z,1.30
2017-08-13T13:11:00.411Z,1.33
2017-08-13T13:13:27.896Z,1.10
2017-08-13T13:15:55.642Z,1.20
2017-08-13T13:18:23.139Z,1.47
2017-08-13T13:20:50.654Z,1.10
2017-08-13T13:23:18.167Z,1.40
2017-08-13T13:25:45.646Z,1.60
2017-08-13T13:28:13.143Z,1.13
2017-08-13T13:30:40.624Z,1.10
2017-08-13T13:33:08.128Z,1.50
2017-08-13T13:35:35.620Z,1.33
2017-08-13T13:38:03.888Z,1.23
2017-08-13T13:40:32.138Z,1.33
2017-08-13T13:42:59.641Z,1.53
2017-08-13T13:45:27.121Z,1.10
2017-08-13T13:47:54.616Z,1.00
2017-08-13T13:50:22.133Z,1.20
2017-08-13T13:52:49.650Z,1.10
2017-08-13T13:55:17.910Z,1.20
2017-08-13T13:57:45.415Z,1.57
2017-08-13T14:00:12.908Z,0.93
2017-08-13T14:02:41.173Z,1.70
2017-08-13T14:05:08.675Z,1.03
2017-08-13T14:07:36.185Z,1.23
2017-08-13T14:10:03.686Z,0.90
2017-08-13T14:15:20.517Z,1.53
2017-08-13T14:17:48.053Z,1.00
2017-08-13T14:20:15.537Z,1.30
2017-08-13T14:22:43.042Z,1.10
2017-08-13T14:25:10.529Z,1.20
2017-08-13T14:27:38.056Z,1.50
2017-08-13T14:30:05.544Z,1.47
2017-08-13T14:32:33.788Z,1.23
2017-08-13T14:35:01.287Z,1.30
2017-08-13T14:37:28.767Z,1.20
2017-08-13T14:39:56.308Z,1.13
2017-08-13T14:42:23.836Z,1.53
2017-08-13T14:44:51.408Z,1.03
2017-08-13T14:47:19.707Z,1.30
2017-08-13T14:49:47.225Z,1.20
2017-08-13T14:52:15.480Z,1.30
2017-08-13T14:54:42.979Z,1.43
2017-08-13T14:57:10.460Z,1.47
2017-08-13T14:59:38.728Z,1.40
2017-08-13T15:02:06.983Z,1.53
2017-08-13T15:04:35.267Z,1.57
2017-08-13T15:07:02.747Z,0.97
2017-08-13T15:09:30.247Z,1.70
2017-08-13T15:11:57.736Z,1.20
2017-08-13T15:14:25.244Z,1.50
2017-08-13T15:16:52.737Z,1.30
2017-08-13T15:19:20.357Z,1.20
2017-08-13T15:21:47.850Z,1.33
2017-08-13T15:24:15.345Z,1.27
2017-08-13T15:26:42.897Z,1.20
2017-08-13T15:29:10.413Z,0.97
2017-08-13T15:31:37.900Z,0.70
2017-08-13T15:34:05.428Z,0.90
2017-08-13T15:36:32.907Z,0.83
2017-08-13T15:39:01.152Z,1.27
2017-08-13T15:41:28.649Z,1.00
2017-08-13T15:43:56.131Z,1.03
2017-08-13T15:46:23.647Z,1.00
2017-08-13T15:48:51.135Z,1.30
2017-08-13T15:51:19.414Z,1.50
2017-08-13T15:53:46.892Z,1.20
2017-08-13T15:56:14.388Z,1.47
2017-08-13T15:58:41.877Z,1.13
2017-08-13T16:01:09.376Z,1.30
2017-08-13T16:03:36.873Z,1.30
2017-08-13T16:06:04.388Z,1.10
2017-08-13T16:08:31.874Z,1.23
2017-08-13T16:10:59.371Z,1.00
2017-08-13T16:13:26.847Z,1.30
2017-08-13T16:15:54.341Z,1.30
2017-08-13T16:18:21.834Z,1.03
2017-08-13T16:20:49.336Z,1.00
2017-08-13T16:23:16.832Z,0.93
2017-08-13T16:25:44.331Z,1.10
2017-08-13T16:28:11.812Z,1.40
2017-08-13T16:30:39.319Z,1.40
2017-08-13T16:33:06.796Z,1.23
2017-08-13T16:35:34.291Z,1.57
2017-08-13T16:38:01.781Z,1.70
2017-08-13T16:40:29.300Z,1.30
2017-08-13T16:42:56.790Z,1.40
2017-08-13T16:45:24.283Z,1.53
2017-08-13T16:47:51.779Z,1.20
2017-08-13T16:50:19.269Z,1.40
2017-08-13T16:52:46.772Z,1.40
2017-08-13T16:55:14.255Z,1.20
2017-08-13T16:57:41.768Z,1.57
2017-08-13T17:00:09.256Z,1.20
2017-08-13T17:02:36.756Z,1.53
2017-08-13T17:05:04.240Z,1.40
2017-08-13T17:07:31.740Z,1.47
2017-08-13T17:09:59.224Z,2.10
2017-08-13T17:12:26.728Z,2.60
2017-08-13T17:14:54.212Z,1.33
2017-08-13T17:17:21.713Z,1.70
2017-08-13T17:19:49.206Z,1.20
2017-08-13T17:22:16.711Z,1.30
2017-08-13T17:24:44.203Z,1.23
2017-08-13T17:27:12.476Z,1.73
2017-08-13T17:29:39.988Z,1.40
2017-08-13T17:32:07.463Z,1.50
2017-08-13T17:34:34.963Z,1.60
2017-08-13T17:37:02.444Z,1.70
2017-08-13T17:39:29.953Z,1.37
2017-08-13T17:41:57.435Z,1.53
2017-08-13T17:44:24.940Z,1.30
2017-08-13T17:46:52.438Z,1.40
2017-08-13T17:49:19.971Z,2.03
2017-08-13T17:51:47.464Z,1.63
2017-08-13T17:54:14.980Z,1.73
2017-08-13T17:56:42.476Z,1.60
2017-08-13T17:59:10.741Z,1.40
2017-08-13T18:01:38.233Z,2.00
2017-08-13T18:04:05.743Z,1.93
2017-08-13T18:06:33.230Z,2.57
2017-08-13T18:09:00.712Z,2.00
2017-08-13T18:11:28.216Z,1.93
2017-08-13T18:13:55.703Z,2.03
2017-08-13T18:16:23.204Z,2.40
2017-08-13T18:18:50.688Z,2.30
2017-08-13T18:21:18.192Z,2.10
2017-08-13T18:23:45.672Z,2.10
2017-08-13T18:26:13.209Z,1.63
2017-08-13T18:28:40.684Z,1.43
2017-08-13T18:31:08.185Z,2.10
2017-08-13T18:33:36.433Z,1.97
2017-08-13T18:36:04.714Z,1.70
2017-08-13T18:38:32.212Z,1.97
2017-08-13T18:40:59.715Z,4.77
2017-08-13T18:43:27.197Z,2.27
2017-08-13T18:45:54.699Z,1.83
2017-08-13T18:48:22.291Z,2.33
2017-08-13T18:50:49.781Z,2.40
2017-08-13T18:53:17.282Z,2.20
2017-08-13T18:55:44.759Z,2.00
2017-08-13T18:58:12.279Z,2.47
2017-08-13T19:00:40.536Z,2.67
2017-08-13T19:03:08.039Z,2.57
2017-08-13T19:05:35.520Z,2.90
2017-08-13T19:08:03.019Z,2.80
2017-08-13T19:10:30.512Z,2.43
2017-08-13T19:12:58.770Z,3.30
2017-08-13T19:15:27.027Z,2.60
2017-08-13T19:17:55.291Z,3.10
2017-08-13T19:20:33.527Z,3.67
2017-08-13T19:23:01.038Z,4.03
2017-08-13T19:25:29.283Z,14.00
2017-08-13T19:27:57.576Z,17.90
2017-08-13T19:30:25.060Z,23.50
2017-08-13T19:32:52.607Z,5.53
2017-08-13T19:35:20.094Z,3.60
2017-08-13T19:37:47.609Z,3.40
2017-08-13T19:40:15.079Z,3.70
2017-08-13T19:42:42.569Z,2.70
2017-08-13T19:45:10.085Z,3.60
2017-08-13T19:47:37.572Z,2.70
2017-08-13T19:50:05.080Z,2.67
2017-08-13T19:52:32.559Z,3.43
2017-08-13T19:55:00.055Z,2.83
2017-08-13T19:57:27.542Z,3.53
2017-08-13T19:59:55.056Z,3.03
2017-08-13T20:02:22.544Z,3.07
2017-08-13T20:04:50.052Z,3.00
2017-08-13T20:07:17.535Z,3.37
2017-08-13T20:09:45.060Z,3.50
2017-08-13T20:12:12.547Z,75.03
2017-08-13T20:14:40.056Z,56.43
2017-08-13T20:17:08.314Z,12.90
2017-08-13T20:19:36.577Z,7.87
2017-08-13T20:22:04.843Z,5.80
2017-08-13T20:24:33.096Z,5.00
2017-08-13T20:27:01.371Z,5.07
2017-08-13T20:29:28.877Z,8.43
2017-08-13T20:31:56.379Z,18.00
2017-08-13T20:34:23.880Z,16.90
2017-08-13T20:36:52.154Z,13.17
2017-08-13T20:39:20.409Z,16.43
2017-08-13T20:41:48.696Z,13.50
2017-08-13T20:44:16.204Z,20.60
2017-08-13T20:46:44.472Z,9.53
2017-08-13T20:49:12.727Z,11.27
2017-08-13T20:51:41.011Z,12.60
2017-08-13T20:54:08.492Z,8.10
2017-08-13T20:56:35.997Z,6.20
2017-08-13T20:59:03.485Z,5.23
2017-08-13T21:01:31.012Z,5.10
2017-08-13T21:03:58.511Z,34.53
2017-08-13T21:06:26.759Z,67.07
2017-08-13T21:08:55.035Z,16.90
2017-08-13T21:11:23.298Z,15.37
2017-08-13T21:13:50.820Z,14.30
2017-08-13T21:16:18.326Z,12.20
2017-08-13T21:18:45.836Z,10.47
2017-08-13T21:21:13.315Z,9.43
2017-08-13T21:23:40.825Z,7.30
2017-08-13T21:26:08.319Z,11.70
2017-08-13T21:28:35.838Z,15.10
2017-08-13T21:31:03.326Z,12.20
2017-08-13T21:33:30.853Z,9.67
2017-08-13T21:35:58.343Z,8.67
2017-08-13T21:38:25.848Z,9.00
2017-08-13T21:40:54.107Z,7.77
2017-08-13T21:43:21.615Z,8.40
2017-08-13T21:45:49.745Z,8.53
2017-08-13T21:48:17.257Z,8.53
2017-08-13T21:50:44.740Z,7.40
2017-08-13T21:53:12.256Z,7.00
2017-08-13T21:55:39.752Z,8.70
2017-08-13T21:58:07.240Z,10.33
2017-08-13T22:00:35.687Z,10.60
2017-08-13T22:03:03.935Z,12.13
2017-08-13T22:05:31.440Z,9.30
2017-08-13T22:07:58.926Z,8.43
2017-08-13T22:10:26.430Z,5.87
2017-08-13T22:12:53.918Z,5.23
2017-08-13T22:15:21.441Z,5.03
2017-08-13T22:17:48.937Z,5.10
2017-08-13T22:20:16.441Z,5.10
2017-08-13T22:22:43.915Z,5.27
2017-08-13T22:25:11.436Z,5.53
2017-08-13T22:27:39.684Z,5.37
2017-08-13T22:30:07.162Z,4.93
2017-08-13T22:32:34.683Z,5.97
2017-08-13T22:35:02.928Z,5.13
2017-08-13T22:37:30.423Z,5.23
2017-08-13T22:39:57.900Z,4.97
2017-08-13T22:42:25.407Z,5.17
2017-08-13T22:44:52.887Z,5.13
2017-08-13T22:47:20.401Z,5.50
2017-08-13T22:49:47.883Z,5.80
2017-08-13T22:52:15.387Z,5.67
2017-08-13T22:54:42.876Z,5.67
2017-08-13T22:57:10.392Z,5.87
2017-08-13T22:59:37.867Z,5.47
2017-08-13T23:02:06.117Z,6.00
2017-08-13T23:04:34.382Z,6.20
2017-08-13T23:07:02.637Z,6.77
2017-08-13T23:09:30.899Z,5.60
2017-08-13T23:11:58.379Z,5.47
2017-08-13T23:14:25.892Z,7.33
2017-08-13T23:16:53.373Z,7.73
2017-08-13T23:19:20.878Z,8.33
2017-08-13T23:21:49.120Z,7.40
2017-08-13T23:24:17.405Z,8.13
2017-08-13T23:26:44.887Z,8.80
2017-08-13T23:29:12.405Z,8.43
2017-08-13T23:31:39.883Z,7.90
2017-08-13T23:34:07.375Z,7.63
2017-08-13T23:36:34.883Z,7.03
2017-08-13T23:39:02.362Z,6.00
2017-08-13T23:41:29.863Z,6.37
2017-08-13T23:43:57.344Z,5.83
2017-08-13T23:46:24.860Z,6.40
2017-08-13T23:48:52.344Z,5.80
2017-08-13T23:51:19.871Z,6.60
2017-08-13T23:53:47.360Z,6.43
2017-08-13T23:56:14.868Z,7.60
2017-08-13T23:58:42.348Z,6.93
